sensor_id;sensor_type;location;lat;lon;timestamp;pressure;altitude;pressure_sealevel;temperature;humidity
72798;BME280;61084;55.816;37.036;2023-05-17T00:02:08;100032.63;;;12.21;46.70
72798;BME280;61084;55.816;37.036;2023-05-17T00:04:34;100030.91;;;12.20;46.71
72798;BME280;61084;55.816;37.036;2023-05-17T00:07:00;100032.84;;;12.17;46.67
72798;BME280;61084;55.816;37.036;2023-05-17T00:09:26;100036.47;;;12.14;47.00
72798;BME280;61084;55.816;37.036;2023-05-17T00:11:52;100033.28;;;12.07;47.27
72798;BME280;61084;55.816;37.036;2023-05-17T00:14:17;100036.91;;;12.05;47.36
72798;BME280;61084;55.816;37.036;2023-05-17T00:16:43;100045.06;;;12.00;47.57
72798;BME280;61084;55.816;37.036;2023-05-17T00:19:09;100045.19;;;11.97;47.12
72798;BME280;61084;55.816;37.036;2023-05-17T00:21:35;100045.50;;;11.91;47.56
72798;BME280;61084;55.816;37.036;2023-05-17T00:24:01;100048.25;;;11.88;47.60
72798;BME280;61084;55.816;37.036;2023-05-17T00:26:27;100048.41;;;11.85;47.57
72798;BME280;61084;55.816;37.036;2023-05-17T00:28:53;100045.16;;;11.80;47.97
72798;BME280;61084;55.816;37.036;2023-05-17T00:31:19;100044.50;;;11.75;48.22
72798;BME280;61084;55.816;37.036;2023-05-17T00:33:45;100054.34;;;11.72;48.39
72798;BME280;61084;55.816;37.036;2023-05-17T00:36:12;100053.59;;;11.68;48.38
72798;BME280;61084;55.816;37.036;2023-05-17T00:38:38;100051.94;;;11.66;48.13
72798;BME280;61084;55.816;37.036;2023-05-17T00:41:05;100046.84;;;11.63;48.43
72798;BME280;61084;55.816;37.036;2023-05-17T00:43:31;100054.94;;;11.58;48.86
72798;BME280;61084;55.816;37.036;2023-05-17T00:45:57;100057.78;;;11.54;48.93
72798;BME280;61084;55.816;37.036;2023-05-17T00:48:23;100058.94;;;11.48;49.14
72798;BME280;61084;55.816;37.036;2023-05-17T00:50:52;100063.38;;;11.46;49.35
72798;BME280;61084;55.816;37.036;2023-05-17T00:53:18;100060.03;;;11.43;49.05
72798;BME280;61084;55.816;37.036;2023-05-17T00:55:44;100068.09;;;11.40;49.03
72798;BME280;61084;55.816;37.036;2023-05-17T00:58:11;100067.44;;;11.34;49.22
72798;BME280;61084;55.816;37.036;2023-05-17T01:00:37;100065.00;;;11.30;49.44
72798;BME280;61084;55.816;37.036;2023-05-17T01:03:04;100065.13;;;11.27;49.27
72798;BME280;61084;55.816;37.036;2023-05-17T01:05:30;100068.75;;;11.24;49.38
72798;BME280;61084;55.816;37.036;2023-05-17T01:07:56;100074.09;;;11.23;49.23
72798;BME280;61084;55.816;37.036;2023-05-17T01:10:33;100077.69;;;11.20;50.36
72798;BME280;61084;55.816;37.036;2023-05-17T01:13:08;100077.00;;;11.17;49.97
72798;BME280;61084;55.816;37.036;2023-05-17T01:15:42;100078.06;;;11.13;50.13
72798;BME280;61084;55.816;37.036;2023-05-17T01:18:37;100074.84;;;11.06;50.49
72798;BME280;61084;55.816;37.036;2023-05-17T01:21:16;100069.72;;;11.03;50.31
72798;BME280;61084;55.816;37.036;2023-05-17T01:24:01;100076.81;;;11.01;49.98
72798;BME280;61084;55.816;37.036;2023-05-17T01:26:39;100082.25;;;10.97;50.76
72798;BME280;61084;55.816;37.036;2023-05-17T01:29:07;100083.41;;;10.91;50.78
72798;BME280;61084;55.816;37.036;2023-05-17T01:31:37;100087.97;;;10.86;50.21
72798;BME280;61084;55.816;37.036;2023-05-17T01:34:07;100082.94;;;10.82;50.70
72798;BME280;61084;55.816;37.036;2023-05-17T01:36:34;100090.03;;;10.80;50.26
72798;BME280;61084;55.816;37.036;2023-05-17T01:39:01;100082.22;;;10.78;49.99
72798;BME280;61084;55.816;37.036;2023-05-17T01:41:40;100084.06;;;10.76;50.62
72798;BME280;61084;55.816;37.036;2023-05-17T01:44:32;100086.72;;;10.75;51.12
72798;BME280;61084;55.816;37.036;2023-05-17T01:47:08;100090.28;;;10.74;50.69
72798;BME280;61084;55.816;37.036;2023-05-17T01:49:38;100084.09;;;10.75;50.77
72798;BME280;61084;55.816;37.036;2023-05-17T01:52:13;100090.28;;;10.74;51.01
72798;BME280;61084;55.816;37.036;2023-05-17T01:54:46;100093.81;;;10.73;50.54
72798;BME280;61084;55.816;37.036;2023-05-17T01:57:13;100085.16;;;10.71;50.93
72798;BME280;61084;55.816;37.036;2023-05-17T01:59:43;100090.47;;;10.69;50.79
72798;BME280;61084;55.816;37.036;2023-05-17T02:02:09;100091.34;;;10.70;51.28
72798;BME280;61084;55.816;37.036;2023-05-17T02:04:35;100086.91;;;10.70;50.96
72798;BME280;61084;55.816;37.036;2023-05-17T02:07:02;100091.38;;;10.68;51.91
72798;BME280;61084;55.816;37.036;2023-05-17T02:09:28;100094.94;;;10.67;51.51
72798;BME280;61084;55.816;37.036;2023-05-17T02:11:54;100093.19;;;10.68;51.39
72798;BME280;61084;55.816;37.036;2023-05-17T02:14:20;100094.78;;;10.70;51.27
72798;BME280;61084;55.816;37.036;2023-05-17T02:16:46;100099.84;;;10.75;51.82
72798;BME280;61084;55.816;37.036;2023-05-17T02:19:12;100099.72;;;10.78;51.68
72798;BME280;61084;55.816;37.036;2023-05-17T02:21:39;100100.53;;;10.80;51.61
72798;BME280;61084;55.816;37.036;2023-05-17T02:24:05;100100.41;;;10.83;51.64
72798;BME280;61084;55.816;37.036;2023-05-17T02:26:31;100100.13;;;10.89;51.75
72798;BME280;61084;55.816;37.036;2023-05-17T02:28:57;100101.78;;;10.91;51.86
72798;BME280;61084;55.816;37.036;2023-05-17T02:31:23;100110.38;;;10.95;51.74
72798;BME280;61084;55.816;37.036;2023-05-17T02:33:52;100102.41;;;10.96;52.17
72798;BME280;61084;55.816;37.036;2023-05-17T02:36:19;100107.44;;;11.02;52.12
72798;BME280;61084;55.816;37.036;2023-05-17T02:38:45;100119.50;;;11.06;52.30
72798;BME280;61084;55.816;37.036;2023-05-17T02:41:11;100101.81;;;11.10;52.54
72798;BME280;61084;55.816;37.036;2023-05-17T02:43:37;100107.59;;;11.18;52.65
72798;BME280;61084;55.816;37.036;2023-05-17T02:46:03;100098.53;;;11.25;52.43
72798;BME280;61084;55.816;37.036;2023-05-17T02:48:29;100102.50;;;11.33;52.77
72798;BME280;61084;55.816;37.036;2023-05-17T02:50:55;100104.88;;;11.40;52.59
72798;BME280;61084;55.816;37.036;2023-05-17T02:53:21;100109.88;;;11.46;52.89
72798;BME280;61084;55.816;37.036;2023-05-17T02:55:47;100111.25;;;11.53;52.74
72798;BME280;61084;55.816;37.036;2023-05-17T02:58:13;100113.56;;;11.60;52.93
72798;BME280;61084;55.816;37.036;2023-05-17T03:00:43;100115.91;;;11.66;53.03
72798;BME280;61084;55.816;37.036;2023-05-17T03:03:11;100117.28;;;11.75;53.07
72798;BME280;61084;55.816;37.036;2023-05-17T03:05:37;100119.38;;;11.87;52.90
72798;BME280;61084;55.816;37.036;2023-05-17T03:08:03;100113.59;;;11.97;53.21
72798;BME280;61084;55.816;37.036;2023-05-17T03:10:29;100122.53;;;12.12;52.81
72798;BME280;61084;55.816;37.036;2023-05-17T03:12:55;100122.88;;;12.23;53.18
72798;BME280;61084;55.816;37.036;2023-05-17T03:15:23;100117.03;;;12.35;53.06
72798;BME280;61084;55.816;37.036;2023-05-17T03:17:51;100125.25;;;12.46;52.66
72798;BME280;61084;55.816;37.036;2023-05-17T03:20:18;100122.88;;;12.59;53.05
72798;BME280;61084;55.816;37.036;2023-05-17T03:22:45;100122.34;;;12.69;52.42
72798;BME280;61084;55.816;37.036;2023-05-17T03:25:11;100124.28;;;12.83;51.67
72798;BME280;61084;55.816;37.036;2023-05-17T03:27:37;100126.19;;;12.97;51.56
72798;BME280;61084;55.816;37.036;2023-05-17T03:30:04;100124.78;;;13.08;51.95
72798;BME280;61084;55.816;37.036;2023-05-17T03:32:32;100132.03;;;13.20;51.23
72798;BME280;61084;55.816;37.036;2023-05-17T03:34:58;100133.97;;;13.34;51.29
72798;BME280;61084;55.816;37.036;2023-05-17T03:37:25;100123.53;;;13.48;50.59
72798;BME280;61084;55.816;37.036;2023-05-17T03:39:51;100135.06;;;13.63;50.39
72798;BME280;61084;55.816;37.036;2023-05-17T03:42:17;100141.28;;;13.77;50.04
72798;BME280;61084;55.816;37.036;2023-05-17T03:44:43;100138.00;;;13.89;49.63
72798;BME280;61084;55.816;37.036;2023-05-17T03:47:10;100139.19;;;13.99;49.73
72798;BME280;61084;55.816;37.036;2023-05-17T03:49:36;100134.16;;;14.10;49.45
72798;BME280;61084;55.816;37.036;2023-05-17T03:52:02;100135.34;;;14.20;49.09
72798;BME280;61084;55.816;37.036;2023-05-17T03:54:28;100134.72;;;14.32;49.08
72798;BME280;61084;55.816;37.036;2023-05-17T03:56:54;100137.50;;;14.45;48.62
72798;BME280;61084;55.816;37.036;2023-05-17T03:59:20;100138.66;;;14.55;48.64
72798;BME280;61084;55.816;37.036;2023-05-17T04:01:46;100136.25;;;14.66;48.36
72798;BME280;61084;55.816;37.036;2023-05-17T04:04:13;100131.13;;;14.79;48.52
72798;BME280;61084;55.816;37.036;2023-05-17T04:06:39;100132.09;;;14.92;48.86
72798;BME280;61084;55.816;37.036;2023-05-17T04:09:06;100141.97;;;15.04;48.24
72798;BME280;61084;55.816;37.036;2023-05-17T04:11:33;100139.44;;;15.17;47.94
72798;BME280;61084;55.816;37.036;2023-05-17T04:13:59;100145.59;;;15.31;48.01
72798;BME280;61084;55.816;37.036;2023-05-17T04:16:25;100146.56;;;15.44;47.28
72798;BME280;61084;55.816;37.036;2023-05-17T04:18:51;100146.72;;;15.57;47.46
72798;BME280;61084;55.816;37.036;2023-05-17T04:21:18;100149.22;;;15.72;47.40
72798;BME280;61084;55.816;37.036;2023-05-17T04:23:45;100151.13;;;15.84;46.64
72798;BME280;61084;55.816;37.036;2023-05-17T04:26:11;100154.72;;;15.98;47.24
72798;BME280;61084;55.816;37.036;2023-05-17T04:28:38;100155.75;;;16.09;46.98
72798;BME280;61084;55.816;37.036;2023-05-17T04:31:08;100148.50;;;16.25;46.49
72798;BME280;61084;55.816;37.036;2023-05-17T04:33:35;100158.41;;;16.36;46.59
72798;BME280;61084;55.816;37.036;2023-05-17T04:36:02;100154.81;;;16.51;45.88
72798;BME280;61084;55.816;37.036;2023-05-17T04:38:30;100154.88;;;16.64;45.54
72798;BME280;61084;55.816;37.036;2023-05-17T04:41:01;100148.56;;;16.79;45.49
72798;BME280;61084;55.816;37.036;2023-05-17T04:43:27;100152.72;;;16.95;45.32
72798;BME280;61084;55.816;37.036;2023-05-17T04:45:56;100149.91;;;17.11;45.63
72798;BME280;61084;55.816;37.036;2023-05-17T04:48:23;100154.78;;;17.29;45.56
72798;BME280;61084;55.816;37.036;2023-05-17T04:50:52;100147.69;;;17.43;44.86
72798;BME280;61084;55.816;37.036;2023-05-17T04:53:18;100152.19;;;17.55;44.28
72798;BME280;61084;55.816;37.036;2023-05-17T04:55:44;100153.88;;;17.68;43.97
72798;BME280;61084;55.816;37.036;2023-05-17T04:58:10;100149.19;;;17.84;44.14
72798;BME280;61084;55.816;37.036;2023-05-17T05:00:38;100150.56;;;18.02;44.20
72798;BME280;61084;55.816;37.036;2023-05-17T05:03:05;100148.25;;;18.22;43.92
72798;BME280;61084;55.816;37.036;2023-05-17T05:05:33;100146.09;;;18.39;43.92
72798;BME280;61084;55.816;37.036;2023-05-17T05:08:00;100146.44;;;18.58;43.64
72798;BME280;61084;55.816;37.036;2023-05-17T05:10:27;100152.44;;;18.73;43.28
72798;BME280;61084;55.816;37.036;2023-05-17T05:12:53;100149.50;;;18.89;42.35
72798;BME280;61084;55.816;37.036;2023-05-17T05:15:19;100155.47;;;19.03;42.53
72798;BME280;61084;55.816;37.036;2023-05-17T05:17:52;100153.47;;;19.18;41.73
72798;BME280;61084;55.816;37.036;2023-05-17T05:20:19;100153.91;;;19.35;42.05
72798;BME280;61084;55.816;37.036;2023-05-17T05:22:45;100152.00;;;19.48;41.66
72798;BME280;61084;55.816;37.036;2023-05-17T05:25:12;100148.50;;;19.59;41.16
72798;BME280;61084;55.816;37.036;2023-05-17T05:27:38;100154.91;;;19.68;40.27
72798;BME280;61084;55.816;37.036;2023-05-17T05:30:04;100148.16;;;19.75;40.10
72798;BME280;61084;55.816;37.036;2023-05-17T05:32:33;100151.78;;;19.85;40.03
72798;BME280;61084;55.816;37.036;2023-05-17T05:34:59;100157.69;;;19.99;39.81
72798;BME280;61084;55.816;37.036;2023-05-17T05:37:25;100164.38;;;20.16;39.91
72798;BME280;61084;55.816;37.036;2023-05-17T05:39:52;100162.31;;;20.31;39.21
72798;BME280;61084;55.816;37.036;2023-05-17T05:42:19;100159.34;;;20.45;39.68
72798;BME280;61084;55.816;37.036;2023-05-17T05:44:44;100159.97;;;20.48;38.62
72798;BME280;61084;55.816;37.036;2023-05-17T05:47:30;100158.84;;;20.62;38.53
72798;BME280;61084;55.816;37.036;2023-05-17T05:49:56;100156.13;;;20.73;38.87
72798;BME280;61084;55.816;37.036;2023-05-17T05:52:22;100150.75;;;20.84;37.94
72798;BME280;61084;55.816;37.036;2023-05-17T05:54:49;100149.47;;;20.99;38.08
72798;BME280;61084;55.816;37.036;2023-05-17T05:57:15;100152.34;;;21.18;38.24
72798;BME280;61084;55.816;37.036;2023-05-17T05:59:41;100151.03;;;21.33;38.17
72798;BME280;61084;55.816;37.036;2023-05-17T06:02:07;100146.44;;;21.45;37.62
72798;BME280;61084;55.816;37.036;2023-05-17T06:04:33;100138.81;;;21.61;37.73
72798;BME280;61084;55.816;37.036;2023-05-17T06:06:58;100139.28;;;21.75;37.10
72798;BME280;61084;55.816;37.036;2023-05-17T06:09:24;100141.66;;;21.90;37.22
72798;BME280;61084;55.816;37.036;2023-05-17T06:11:53;100151.41;;;22.00;36.40
72798;BME280;61084;55.816;37.036;2023-05-17T06:14:19;100146.38;;;22.16;36.64
72798;BME280;61084;55.816;37.036;2023-05-17T06:16:46;100149.50;;;22.21;36.07
72798;BME280;61084;55.816;37.036;2023-05-17T06:19:13;100146.84;;;22.31;35.50
72798;BME280;61084;55.816;37.036;2023-05-17T06:21:39;100155.34;;;22.45;35.88
72798;BME280;61084;55.816;37.036;2023-05-17T06:24:05;100157.66;;;22.60;35.79
72798;BME280;61084;55.816;37.036;2023-05-17T06:26:31;100155.41;;;22.74;35.33
72798;BME280;61084;55.816;37.036;2023-05-17T06:28:57;100151.75;;;22.85;35.42
72798;BME280;61084;55.816;37.036;2023-05-17T06:31:23;100151.03;;;22.92;35.29
72798;BME280;61084;55.816;37.036;2023-05-17T06:34:07;100141.03;;;23.04;34.91
72798;BME280;61084;55.816;37.036;2023-05-17T06:36:33;100149.19;;;23.12;34.54
72798;BME280;61084;55.816;37.036;2023-05-17T06:38:59;100145.53;;;23.22;34.77
72798;BME280;61084;55.816;37.036;2023-05-17T06:41:25;100143.41;;;23.26;33.70
72798;BME280;61084;55.816;37.036;2023-05-17T06:43:51;100142.28;;;23.29;34.56
72798;BME280;61084;55.816;37.036;2023-05-17T06:46:18;100144.41;;;23.44;34.44
72798;BME280;61084;55.816;37.036;2023-05-17T06:48:44;100150.03;;;23.51;33.71
72798;BME280;61084;55.816;37.036;2023-05-17T06:51:09;100155.50;;;23.49;33.48
72798;BME280;61084;55.816;37.036;2023-05-17T06:53:35;100141.81;;;23.62;33.85
72798;BME280;61084;55.816;37.036;2023-05-17T06:56:01;100150.66;;;23.72;33.21
72798;BME280;61084;55.816;37.036;2023-05-17T06:58:27;100151.47;;;23.82;32.90
72798;BME280;61084;55.816;37.036;2023-05-17T07:00:53;100160.38;;;23.82;32.56
72798;BME280;61084;55.816;37.036;2023-05-17T07:03:19;100155.88;;;23.73;32.40
72798;BME280;61084;55.816;37.036;2023-05-17T07:05:45;100156.28;;;23.78;32.52
72798;BME280;61084;55.816;37.036;2023-05-17T07:08:10;100149.47;;;23.84;32.33
72798;BME280;61084;55.816;37.036;2023-05-17T07:10:36;100155.97;;;23.91;32.54
72798;BME280;61084;55.816;37.036;2023-05-17T07:13:03;100159.22;;;23.94;32.36
72798;BME280;61084;55.816;37.036;2023-05-17T07:15:29;100151.66;;;24.08;32.60
72798;BME280;61084;55.816;37.036;2023-05-17T07:17:54;100162.22;;;24.19;32.68
72798;BME280;61084;55.816;37.036;2023-05-17T07:20:20;100160.94;;;24.23;32.36
72798;BME280;61084;55.816;37.036;2023-05-17T07:23:05;100156.50;;;24.31;30.82
72798;BME280;61084;55.816;37.036;2023-05-17T07:25:30;100152.38;;;24.37;31.89
72798;BME280;61084;55.816;37.036;2023-05-17T07:27:56;100167.41;;;24.47;31.99
72798;BME280;61084;55.816;37.036;2023-05-17T07:33:43;100157.31;;;24.59;32.15
72798;BME280;61084;55.816;37.036;2023-05-17T07:36:09;100159.72;;;24.62;31.52
72798;BME280;61084;55.816;37.036;2023-05-17T07:38:35;100160.69;;;24.61;31.31
72798;BME280;61084;55.816;37.036;2023-05-17T07:41:01;100158.53;;;24.64;29.94
72798;BME280;61084;55.816;37.036;2023-05-17T07:43:28;100161.22;;;24.64;29.51
72798;BME280;61084;55.816;37.036;2023-05-17T07:45:53;100149.19;;;24.68;30.95
72798;BME280;61084;55.816;37.036;2023-05-17T07:48:19;100156.94;;;24.71;31.14
72798;BME280;61084;55.816;37.036;2023-05-17T07:50:45;100160.31;;;24.73;30.54
72798;BME280;61084;55.816;37.036;2023-05-17T07:53:11;100163.22;;;24.90;30.80
72798;BME280;61084;55.816;37.036;2023-05-17T07:55:37;100156.13;;;25.06;30.80
72798;BME280;61084;55.816;37.036;2023-05-17T07:58:03;100151.66;;;25.15;30.43
72798;BME280;61084;55.816;37.036;2023-05-17T08:00:29;100150.56;;;25.25;30.93
72798;BME280;61084;55.816;37.036;2023-05-17T08:02:55;100147.28;;;25.31;30.25
72798;BME280;61084;55.816;37.036;2023-05-17T08:05:22;100146.22;;;25.42;30.45
72798;BME280;61084;55.816;37.036;2023-05-17T08:08:06;100153.47;;;25.50;30.39
72798;BME280;61084;55.816;37.036;2023-05-17T08:10:32;100147.47;;;25.56;30.10
72798;BME280;61084;55.816;37.036;2023-05-17T08:13:36;100143.16;;;25.63;30.45
72798;BME280;61084;55.816;37.036;2023-05-17T08:16:20;100149.22;;;25.65;29.71
72798;BME280;61084;55.816;37.036;2023-05-17T08:18:46;100151.81;;;25.74;30.01
72798;BME280;61084;55.816;37.036;2023-05-17T08:21:12;100141.25;;;25.81;29.72
72798;BME280;61084;55.816;37.036;2023-05-17T08:23:39;100141.94;;;25.91;29.32
72798;BME280;61084;55.816;37.036;2023-05-17T08:26:05;100129.72;;;25.96;29.89
72798;BME280;61084;55.816;37.036;2023-05-17T08:28:31;100134.25;;;25.96;27.40
72798;BME280;61084;55.816;37.036;2023-05-17T08:31:15;100139.22;;;25.83;27.85
72798;BME280;61084;55.816;37.036;2023-05-17T08:33:41;100132.16;;;25.82;28.18
72798;BME280;61084;55.816;37.036;2023-05-17T08:36:07;100145.66;;;25.90;28.92
72798;BME280;61084;55.816;37.036;2023-05-17T08:38:33;100135.72;;;25.90;27.96
72798;BME280;61084;55.816;37.036;2023-05-17T08:43:46;100136.06;;;25.87;27.78
72798;BME280;61084;55.816;37.036;2023-05-17T08:46:13;100128.69;;;25.89;28.26
72798;BME280;61084;55.816;37.036;2023-05-17T08:48:41;100126.00;;;25.97;28.46
72798;BME280;61084;55.816;37.036;2023-05-17T08:51:08;100129.13;;;26.10;28.87
72798;BME280;61084;55.816;37.036;2023-05-17T08:53:37;100123.44;;;26.13;28.58
72798;BME280;61084;55.816;37.036;2023-05-17T08:56:03;100127.78;;;26.14;28.29
72798;BME280;61084;55.816;37.036;2023-05-17T08:58:33;100122.28;;;26.16;27.44
72798;BME280;61084;55.816;37.036;2023-05-17T09:01:00;100130.56;;;26.31;28.83
72798;BME280;61084;55.816;37.036;2023-05-17T09:03:27;100128.59;;;26.49;28.29
72798;BME280;61084;55.816;37.036;2023-05-17T09:05:55;100141.41;;;26.55;28.40
72798;BME280;61084;55.816;37.036;2023-05-17T09:08:23;100134.97;;;26.56;28.98
72798;BME280;61084;55.816;37.036;2023-05-17T09:10:49;100135.84;;;26.56;27.72
72798;BME280;61084;55.816;37.036;2023-05-17T09:13:15;100135.03;;;26.64;28.32
72798;BME280;61084;55.816;37.036;2023-05-17T09:15:43;100130.97;;;26.60;27.89
72798;BME280;61084;55.816;37.036;2023-05-17T09:18:10;100128.78;;;26.63;27.77
72798;BME280;61084;55.816;37.036;2023-05-17T09:20:37;100126.09;;;26.71;27.84
72798;BME280;61084;55.816;37.036;2023-05-17T09:23:07;100122.25;;;26.82;27.76
72798;BME280;61084;55.816;37.036;2023-05-17T09:25:35;100119.44;;;26.83;27.18
72798;BME280;61084;55.816;37.036;2023-05-17T09:28:03;100120.25;;;26.76;27.48
72798;BME280;61084;55.816;37.036;2023-05-17T09:30:31;100123.59;;;26.78;27.63
72798;BME280;61084;55.816;37.036;2023-05-17T09:33:04;100121.59;;;26.80;26.69
72798;BME280;61084;55.816;37.036;2023-05-17T09:35:32;100116.22;;;26.88;27.81
72798;BME280;61084;55.816;37.036;2023-05-17T09:38:09;100118.75;;;26.89;27.17
72798;BME280;61084;55.816;37.036;2023-05-17T09:40:43;100117.91;;;26.89;27.24
72798;BME280;61084;55.816;37.036;2023-05-17T09:43:10;100120.41;;;26.90;26.98
72798;BME280;61084;55.816;37.036;2023-05-17T09:45:37;100113.00;;;26.84;26.99
72798;BME280;61084;55.816;37.036;2023-05-17T09:48:17;100109.63;;;26.82;26.52
72798;BME280;61084;55.816;37.036;2023-05-17T09:50:47;100115.69;;;26.92;27.54
72798;BME280;61084;55.816;37.036;2023-05-17T09:53:31;100113.19;;;27.07;26.87
72798;BME280;61084;55.816;37.036;2023-05-17T09:56:00;100107.78;;;26.99;26.87
72798;BME280;61084;55.816;37.036;2023-05-17T09:58:27;100108.81;;;27.06;27.11
72798;BME280;61084;55.816;37.036;2023-05-17T10:01:06;100105.75;;;27.17;26.26
72798;BME280;61084;55.816;37.036;2023-05-17T10:03:36;100097.84;;;27.16;26.49
72798;BME280;61084;55.816;37.036;2023-05-17T10:06:07;100100.19;;;27.19;26.25
72798;BME280;61084;55.816;37.036;2023-05-17T10:08:37;100108.44;;;27.25;26.80
72798;BME280;61084;55.816;37.036;2023-05-17T10:11:09;100108.13;;;27.28;26.36
72798;BME280;61084;55.816;37.036;2023-05-17T10:13:43;100099.00;;;27.21;25.74
72798;BME280;61084;55.816;37.036;2023-05-17T10:16:11;100091.78;;;27.22;26.12
72798;BME280;61084;55.816;37.036;2023-05-17T10:18:38;100087.22;;;27.30;26.41
72798;BME280;61084;55.816;37.036;2023-05-17T10:21:08;100091.59;;;27.47;26.50
72798;BME280;61084;55.816;37.036;2023-05-17T10:23:36;100090.56;;;27.56;26.81
72798;BME280;61084;55.816;37.036;2023-05-17T10:26:04;100090.38;;;27.66;26.38
72798;BME280;61084;55.816;37.036;2023-05-17T10:28:31;100087.47;;;27.76;26.77
72798;BME280;61084;55.816;37.036;2023-05-17T10:30:58;100084.91;;;27.82;26.79
72798;BME280;61084;55.816;37.036;2023-05-17T10:33:26;100076.50;;;27.77;25.99
72798;BME280;61084;55.816;37.036;2023-05-17T10:35:53;100079.16;;;27.85;26.32
72798;BME280;61084;55.816;37.036;2023-05-17T10:38:20;100081.16;;;27.91;25.78
72798;BME280;61084;55.816;37.036;2023-05-17T10:40:49;100074.94;;;27.99;26.00
72798;BME280;61084;55.816;37.036;2023-05-17T10:43:17;100077.41;;;28.08;26.42
72798;BME280;61084;55.816;37.036;2023-05-17T10:45:44;100079.22;;;28.16;25.90
72798;BME280;61084;55.816;37.036;2023-05-17T10:48:14;100080.03;;;28.24;26.33
72798;BME280;61084;55.816;37.036;2023-05-17T10:50:40;100075.03;;;28.13;24.93
72798;BME280;61084;55.816;37.036;2023-05-17T10:53:08;100071.41;;;28.21;25.72
72798;BME280;61084;55.816;37.036;2023-05-17T10:55:42;100072.19;;;28.38;25.03
72798;BME280;61084;55.816;37.036;2023-05-17T10:58:16;100074.16;;;28.44;25.58
72798;BME280;61084;55.816;37.036;2023-05-17T11:00:47;100069.91;;;28.49;25.33
72798;BME280;61084;55.816;37.036;2023-05-17T11:03:21;100058.16;;;28.65;24.96
72798;BME280;61084;55.816;37.036;2023-05-17T11:08:36;100060.63;;;28.74;25.50
72798;BME280;61084;55.816;37.036;2023-05-17T11:11:18;100059.72;;;28.82;24.83
72798;BME280;61084;55.816;37.036;2023-05-17T11:13:53;100060.66;;;28.89;25.14
72798;BME280;61084;55.816;37.036;2023-05-17T11:16:27;100044.09;;;28.92;24.68
72798;BME280;61084;55.816;37.036;2023-05-17T11:18:54;100049.75;;;28.82;24.19
72798;BME280;61084;55.816;37.036;2023-05-17T11:21:21;100052.44;;;28.82;24.91
72798;BME280;61084;55.816;37.036;2023-05-17T11:23:52;100063.75;;;28.86;24.89
72798;BME280;61084;55.816;37.036;2023-05-17T11:26:27;100052.50;;;28.97;24.43
72798;BME280;61084;55.816;37.036;2023-05-17T11:29:00;100045.56;;;29.17;24.93
72798;BME280;61084;55.816;37.036;2023-05-17T11:31:35;100056.78;;;29.29;24.64
72798;BME280;61084;55.816;37.036;2023-05-17T11:34:04;100051.56;;;29.27;24.52
72798;BME280;61084;55.816;37.036;2023-05-17T11:36:48;100034.09;;;29.30;24.03
72798;BME280;61084;55.816;37.036;2023-05-17T11:39:16;100035.78;;;29.45;24.99
72798;BME280;61084;55.816;37.036;2023-05-17T11:41:50;100031.31;;;29.52;24.14
72798;BME280;61084;55.816;37.036;2023-05-17T11:44:32;100016.28;;;29.50;23.34
72798;BME280;61084;55.816;37.036;2023-05-17T11:47:06;100027.59;;;29.53;24.09
72798;BME280;61084;55.816;37.036;2023-05-17T11:49:37;100021.53;;;29.51;23.44
72798;BME280;61084;55.816;37.036;2023-05-17T11:52:07;100016.28;;;29.50;24.18
72798;BME280;61084;55.816;37.036;2023-05-17T11:54:33;100014.97;;;29.60;24.20
72798;BME280;61084;55.816;37.036;2023-05-17T11:56:59;100014.63;;;29.63;24.31
72798;BME280;61084;55.816;37.036;2023-05-17T11:59:27;99999.59;;;29.61;23.54
72798;BME280;61084;55.816;37.036;2023-05-17T12:01:53;100005.09;;;29.67;24.27
72798;BME280;61084;55.816;37.036;2023-05-17T12:04:24;100006.38;;;29.71;23.63
72798;BME280;61084;55.816;37.036;2023-05-17T12:06:51;100004.25;;;29.67;23.44
72798;BME280;61084;55.816;37.036;2023-05-17T12:09:17;99998.78;;;29.75;24.17
72798;BME280;61084;55.816;37.036;2023-05-17T12:11:43;99999.78;;;29.74;23.52
72798;BME280;61084;55.816;37.036;2023-05-17T12:14:14;99998.22;;;29.79;22.91
72798;BME280;61084;55.816;37.036;2023-05-17T12:16:41;100001.53;;;29.67;23.04
72798;BME280;61084;55.816;37.036;2023-05-17T12:19:21;99998.09;;;29.73;22.79
72798;BME280;61084;55.816;37.036;2023-05-17T12:21:49;99995.94;;;29.83;22.86
72798;BME280;61084;55.816;37.036;2023-05-17T12:24:16;99997.53;;;29.92;23.55
72798;BME280;61084;55.816;37.036;2023-05-17T12:26:45;99987.59;;;29.99;22.81
72798;BME280;61084;55.816;37.036;2023-05-17T12:29:12;99988.91;;;30.03;22.12
72798;BME280;61084;55.816;37.036;2023-05-17T12:31:41;99981.28;;;29.92;22.67
72798;BME280;61084;55.816;37.036;2023-05-17T12:34:08;99985.34;;;30.03;23.11
72798;BME280;61084;55.816;37.036;2023-05-17T12:36:37;99978.06;;;30.24;23.26
72798;BME280;61084;55.816;37.036;2023-05-17T12:39:03;99972.63;;;30.39;23.00
72798;BME280;61084;55.816;37.036;2023-05-17T12:41:34;99978.63;;;30.56;23.56
72798;BME280;61084;55.816;37.036;2023-05-17T12:44:00;99964.97;;;30.70;23.28
72798;BME280;61084;55.816;37.036;2023-05-17T12:46:27;99957.75;;;30.77;22.75
72798;BME280;61084;55.816;37.036;2023-05-17T12:48:53;99964.88;;;30.85;22.73
72798;BME280;61084;55.816;37.036;2023-05-17T12:51:21;99963.34;;;30.97;22.75
72798;BME280;61084;55.816;37.036;2023-05-17T12:53:55;99941.22;;;31.00;21.73
72798;BME280;61084;55.816;37.036;2023-05-17T12:56:25;99954.75;;;30.93;22.39